Morris, IN (47033)

2:46 AM EDT on May 01, 2017 (GMT -0400)
KINBATES2 | | Change Station

Elev 974 ft 39.29 °N, 85.23 °W | Updated 3 minutes ago

Rain
Rain
67.3 °F
Feels Like 67.3 °F
N
2.0
Wind Variable Wind from SW
Gusts 11.0 mph

Today
High -- | Low -- °F
--% Chance of Precip.
Yesterday
High -- | Low -- °F
Precip. -- in
Pressure 29.70 in
Visibility 10.0 miles
Clouds Mostly Cloudy 6500 ft
Overcast 9500 ft
Dew Point 62 °F
Humidity 83%
Rainfall 0.05 in
Snow Depth Not available.
6:41 AM 8:34 PM
Waxing Crescent, 30% visible
METAR KCVG 010552Z 19021KT 10SM BKN065 OVC095 21/17 A2973 RMK AO2 SLP057 60001 T02110167 10256 20206 58008
Pressure 29.70 in
Visibility 10.0 miles
Clouds Mostly Cloudy 6500 ft
Overcast 9500 ft
Dew Point 62 °F
Humidity 83%
Rainfall 0.05 in
Snow Depth Not available.
6:41 AM 8:34 PM
Waxing Crescent, 30% visible
METAR KCVG 010552Z 19021KT 10SM BKN065 OVC095 21/17 A2973 RMK AO2 SLP057 60001 T02110167 10256 20206 58008

Get Severe Weather Alerts

Thanks for signing up!

Be on the lookout for a verification email in your inbox.

You'll start receiving the daily forecast at 8 AM.

×

10-Day Weather Forecast

Almanac

Astronomy

May. 01, 2017 Rise Set
Actual Time
Civil Twilight
Nautical Twilight
Astronomical Twilight
Moon
Length of Visible Light
Length of Day
Tomorrow will be .
, % of the Moon is Illuminated

Today's Extremes

State Highs State Lows

Community

WunderPhotos

WunderBlog® & News

Nearby

Air Quality

  Air Quality AQ Index Pollutant
Not available.

Snow Depth

Station Depth Elevation

Earthquake Activity

City Distance Mag. Time & Date
Minimum magnitude displayed is 2.5.

Coastal Water Temperatures

Place Temperature

Stations

Nearby Weather Stations

Station Location Temp. Windchill Dew Point Humidity Wind Precip. Elev Updated Type
                   

Watches & Warnings

There are currently no watches in effect.